Time;durP1;ratioP1;P1;durP2;ratioP2;P2;SDS_P1;SDS_P2;PMS_P1;PMS_P2;Temp;Humidity;BMP_temperature;BMP_pressure;BME280_temperature;BME280_humidity;BME280_pressure;Samples;Min_cycle;Max_cycle;Signal;HPM_P1;HPM_P2
2022/07/25 00:01:13;;;;;;;64.73;9.03;;;;;;;;;;5094340;28;20835;-67
2022/07/25 00:03:41;;;;;;;66.77;9.20;;;;;;;;;;5093968;28;20546;-67
2022/07/25 00:06:09;;;;;;;69.13;9.13;;;;;;;;;;5094165;28;20454;-67
2022/07/25 00:08:36;;;;;;;63.10;8.23;;;;;;;;;;5094006;28;20446;-67
2022/07/25 00:11:03;;;;;;;63.47;8.17;;;;;;;;;;5093425;28;20470;-67
2022/07/25 00:13:30;;;;;;;65.97;8.83;;;;;;;;;;5093939;28;20963;-67
2022/07/25 00:15:57;;;;;;;64.83;8.53;;;;;;;;;;5093906;28;20457;-67
2022/07/25 00:18:24;;;;;;;64.07;8.30;;;;;;;;;;5093860;28;20455;-67
2022/07/25 00:20:53;;;;;;;64.00;8.70;;;;;;;;;;5093953;28;20477;-67
2022/07/25 00:23:20;;;;;;;69.77;9.67;;;;;;;;;;5093784;28;20471;-67
2022/07/25 00:25:47;;;;;;;68.83;9.40;;;;;;;;;;5092786;28;20452;-67
2022/07/25 00:28:14;;;;;;;66.00;9.23;;;;;;;;;;5093604;28;20824;-67
2022/07/25 00:30:41;;;;;;;66.00;9.30;;;;;;;;;;5093552;28;20477;-67
2022/07/25 00:33:08;;;;;;;66.40;9.40;;;;;;;;;;5094100;28;20534;-67
2022/07/25 00:35:36;;;;;;;64.87;8.93;;;;;;;;;;5093071;28;20461;-67
2022/07/25 00:38:04;;;;;;;67.97;9.30;;;;;;;;;;5093944;28;20448;-67
2022/07/25 00:40:31;;;;;;;67.20;10.10;;;;;;;;;;5094578;28;20489;-67
2022/07/25 00:42:58;;;;;;;65.57;8.60;;;;;;;;;;5093626;28;20478;-67
2022/07/25 00:45:25;;;;;;;65.37;9.57;;;;;;;;;;5093509;28;20449;-67
2022/07/25 00:47:53;;;;;;;64.83;8.97;;;;;;;;;;5093683;28;20839;-67
2022/07/25 00:50:20;;;;;;;64.17;8.57;;;;;;;;;;5094269;28;20466;-67
2022/07/25 00:52:47;;;;;;;66.30;8.40;;;;;;;;;;5093526;28;20442;-67
2022/07/25 00:55:15;;;;;;;64.53;8.20;;;;;;;;;;5093221;28;20453;-67
2022/07/25 00:57:43;;;;;;;66.57;9.60;;;;;;;;;;5091661;28;20454;-67
2022/07/25 01:00:11;;;;;;;65.00;8.53;;;;;;;;;;5092979;28;20477;-67
2022/07/25 01:02:38;;;;;;;65.63;9.00;;;;;;;;;;5092980;28;20481;-67
2022/07/25 01:05:06;;;;;;;65.47;9.00;;;;;;;;;;5093313;28;20962;-67
2022/07/25 01:07:33;;;;;;;65.23;8.30;;;;;;;;;;5093198;28;20793;-67
2022/07/25 01:10:00;;;;;;;64.13;8.43;;;;;;;;;;5093119;28;20470;-67
2022/07/25 01:12:29;;;;;;;64.67;8.80;;;;;;;;;;5093360;28;20445;-67
2022/07/25 01:14:56;;;;;;;65.90;8.80;;;;;;;;;;5092576;28;20452;-67
2022/07/25 01:17:24;;;;;;;65.80;8.33;;;;;;;;;;5093254;28;20450;-67
2022/07/25 01:19:52;;;;;;;64.47;8.83;;;;;;;;;;5092397;28;20461;-67
2022/07/25 01:22:20;;;;;;;66.90;9.73;;;;;;;;;;5091770;28;20447;-67
2022/07/25 01:24:47;;;;;;;66.80;8.10;;;;;;;;;;5093395;28;20449;-67
2022/07/25 01:27:14;;;;;;;65.90;9.27;;;;;;;;;;5092780;28;20453;-67
2022/07/25 01:29:41;;;;;;;66.90;9.83;;;;;;;;;;5091873;28;20467;-67
2022/07/25 01:32:08;;;;;;;66.80;9.13;;;;;;;;;;5093548;28;20818;-67
2022/07/25 01:34:36;;;;;;;66.20;8.77;;;;;;;;;;5092526;28;20446;-67
2022/07/25 01:37:03;;;;;;;67.73;9.07;;;;;;;;;;5092525;28;20823;-67
2022/07/25 01:39:31;;;;;;;65.17;9.60;;;;;;;;;;5092619;28;20477;-67
2022/07/25 01:45:02;;;;;;;64.23;8.77;;;;;;;;;;5092432;28;20531;-67
2022/07/25 01:47:29;;;;;;;65.67;8.80;;;;;;;;;;5093325;28;20454;-67
2022/07/25 01:49:56;;;;;;;63.27;8.20;;;;;;;;;;5092767;28;20469;-67
2022/07/25 01:52:23;;;;;;;63.93;7.90;;;;;;;;;;5092916;28;20499;-67
2022/07/25 01:54:52;;;;;;;65.07;9.00;;;;;;;;;;5092070;28;20951;-67
2022/07/25 01:57:19;;;;;;;66.13;9.60;;;;;;;;;;5092875;28;20447;-67
2022/07/25 01:59:46;;;;;;;68.90;8.83;;;;;;;;;;5092008;28;20478;-67
2022/07/25 02:02:13;;;;;;;66.20;9.17;;;;;;;;;;5091825;28;20457;-67
2022/07/25 02:04:40;;;;;;;65.67;8.70;;;;;;;;;;5092815;28;20904;-67
2022/07/25 02:07:07;;;;;;;65.87;9.10;;;;;;;;;;5092585;28;20456;-67
2022/07/25 02:09:34;;;;;;;64.80;7.90;;;;;;;;;;5092391;28;20463;-67
2022/07/25 02:12:03;;;;;;;64.57;7.73;;;;;;;;;;5092535;28;20493;-67
2022/07/25 02:14:30;;;;;;;66.77;9.20;;;;;;;;;;5092109;28;20454;-67
2022/07/25 02:16:57;;;;;;;66.37;9.40;;;;;;;;;;5091946;28;20818;-67
2022/07/25 02:19:24;;;;;;;67.00;9.87;;;;;;;;;;5091618;28;20447;-67
2022/07/25 02:21:51;;;;;;;66.40;9.03;;;;;;;;;;5092589;28;20442;-67
2022/07/25 02:24:18;;;;;;;68.17;9.00;;;;;;;;;;5092544;28;20461;-67
2022/07/25 02:26:46;;;;;;;64.70;8.67;;;;;;;;;;5092277;28;20819;-67
2022/07/25 02:29:14;;;;;;;64.50;8.67;;;;;;;;;;5092331;28;20449;-67
2022/07/25 02:31:41;;;;;;;64.67;8.60;;;;;;;;;;5092593;28;20491;-67
2022/07/25 02:34:09;;;;;;;65.03;8.47;;;;;;;;;;5093155;28;20447;-67
2022/07/25 02:36:36;;;;;;;64.87;8.03;;;;;;;;;;5095492;28;20544;-67
2022/07/25 02:39:04;;;;;;;65.00;9.00;;;;;;;;;;5095459;28;20495;-67
2022/07/25 02:41:31;;;;;;;65.63;8.87;;;;;;;;;;5095415;28;20458;-67
2022/07/25 02:43:58;;;;;;;66.30;9.27;;;;;;;;;;5095202;28;20507;-67
2022/07/25 02:46:27;;;;;;;64.70;8.77;;;;;;;;;;5095992;28;20855;-67
2022/07/25 02:48:54;;;;;;;64.40;8.30;;;;;;;;;;5095735;28;20957;-67
2022/07/25 02:51:21;;;;;;;64.77;8.10;;;;;;;;;;5095661;28;20481;-67
2022/07/25 02:53:48;;;;;;;66.87;8.27;;;;;;;;;;5095942;28;20632;-67
2022/07/25 02:56:15;;;;;;;67.17;9.23;;;;;;;;;;5095518;28;20456;-67
2022/07/25 02:58:42;;;;;;;65.40;9.20;;;;;;;;;;5094965;28;20465;-67
2022/07/25 03:01:09;;;;;;;64.80;7.73;;;;;;;;;;5095644;28;20812;-67
2022/07/25 03:03:38;;;;;;;65.00;7.70;;;;;;;;;;5095730;28;20446;-67
2022/07/25 03:06:05;;;;;;;66.47;8.63;;;;;;;;;;5094098;28;20968;-67
2022/07/25 03:08:32;;;;;;;66.00;8.67;;;;;;;;;;5095328;28;20442;-67
2022/07/25 03:10:59;;;;;;;65.27;8.80;;;;;;;;;;5095423;28;21010;-67
2022/07/25 03:13:27;;;;;;;62.53;7.70;;;;;;;;;;5095680;28;20486;-67
2022/07/25 03:15:54;;;;;;;65.17;8.10;;;;;;;;;;5094837;28;20525;-68
2022/07/25 03:18:21;;;;;;;66.13;8.60;;;;;;;;;;5095298;28;20814;-67
2022/07/25 03:20:49;;;;;;;65.57;8.50;;;;;;;;;;5094456;28;20477;-67
2022/07/25 03:23:16;;;;;;;66.00;9.33;;;;;;;;;;5094983;28;20447;-67
2022/07/25 03:25:43;;;;;;;63.87;8.57;;;;;;;;;;5094899;28;20457;-67
2022/07/25 03:28:11;;;;;;;65.40;8.20;;;;;;;;;;5094724;28;20503;-66
2022/07/25 03:30:38;;;;;;;64.30;9.10;;;;;;;;;;5094751;28;20473;-66
2022/07/25 03:33:06;;;;;;;64.30;8.93;;;;;;;;;;5094996;28;20579;-66
2022/07/25 03:35:33;;;;;;;67.27;8.70;;;;;;;;;;5094457;28;20454;-66
2022/07/25 03:38:02;;;;;;;66.00;8.93;;;;;;;;;;5093415;28;20457;-66
2022/07/25 03:40:30;;;;;;;67.00;8.67;;;;;;;;;;5093877;28;20847;-66
2022/07/25 03:42:57;;;;;;;69.30;10.67;;;;;;;;;;5094618;28;20461;-66
2022/07/25 03:45:24;;;;;;;66.53;9.80;;;;;;;;;;5094116;28;20446;-66
2022/07/25 03:47:51;;;;;;;65.47;7.93;;;;;;;;;;5094343;28;20462;-66
2022/07/25 03:50:18;;;;;;;64.30;8.27;;;;;;;;;;5094236;28;20473;-66
2022/07/25 03:52:46;;;;;;;66.40;9.27;;;;;;;;;;5094427;28;20474;-66
2022/07/25 03:55:14;;;;;;;72.20;9.60;;;;;;;;;;5094108;28;20472;-66
2022/07/25 03:57:42;;;;;;;65.13;8.50;;;;;;;;;;5094264;28;20442;-66
2022/07/25 04:00:11;;;;;;;64.83;9.00;;;;;;;;;;5094139;28;20455;-66
2022/07/25 04:02:38;;;;;;;65.40;8.10;;;;;;;;;;5094672;28;20782;-66
2022/07/25 04:05:05;;;;;;;65.63;9.90;;;;;;;;;;5094663;28;20438;-66
2022/07/25 04:07:32;;;;;;;66.80;9.30;;;;;;;;;;5093905;28;20445;-66
2022/07/25 04:10:00;;;;;;;65.17;8.83;;;;;;;;;;5093061;28;20557;-66
2022/07/25 04:12:28;;;;;;;64.90;8.93;;;;;;;;;;5093917;28;20486;-66
2022/07/25 04:14:55;;;;;;;65.53;8.60;;;;;;;;;;5094572;28;20592;-66
2022/07/25 04:17:23;;;;;;;66.50;9.10;;;;;;;;;;5093757;28;20842;-66
2022/07/25 04:19:50;;;;;;;67.80;10.10;;;;;;;;;;5093301;28;20557;-66
2022/07/25 04:22:17;;;;;;;74.73;10.50;;;;;;;;;;5094228;28;20457;-66
2022/07/25 04:24:44;;;;;;;65.47;9.37;;;;;;;;;;5094739;28;20450;-66
2022/07/25 04:27:11;;;;;;;65.10;8.37;;;;;;;;;;5093625;28;20944;-66
2022/07/25 04:29:40;;;;;;;66.87;9.30;;;;;;;;;;5093825;28;20470;-66
2022/07/25 04:32:07;;;;;;;65.70;8.60;;;;;;;;;;5093847;28;20530;-66
2022/07/25 04:34:34;;;;;;;66.00;8.97;;;;;;;;;;5094144;28;20447;-66
2022/07/25 04:37:01;;;;;;;65.70;8.97;;;;;;;;;;5093772;28;20472;-66
2022/07/25 04:39:29;;;;;;;67.37;10.10;;;;;;;;;;5093707;28;20447;-66
2022/07/25 04:41:56;;;;;;;66.13;9.00;;;;;;;;;;5092538;28;20449;-66
2022/07/25 04:44:23;;;;;;;65.30;8.93;;;;;;;;;;5093724;28;20447;-66
2022/07/25 04:46:51;;;;;;;65.80;9.17;;;;;;;;;;5093672;28;20446;-66
2022/07/25 04:49:19;;;;;;;66.57;9.17;;;;;;;;;;5093697;28;20702;-66
2022/07/25 04:51:47;;;;;;;66.53;8.77;;;;;;;;;;5094011;28;20443;-66
2022/07/25 04:54:14;;;;;;;65.83;8.93;;;;;;;;;;5093537;28;20551;-66
2022/07/25 04:56:41;;;;;;;64.50;9.07;;;;;;;;;;5092656;28;20451;-66
2022/07/25 04:59:08;;;;;;;66.23;9.03;;;;;;;;;;5092938;28;20480;-66
2022/07/25 05:01:35;;;;;;;66.23;9.60;;;;;;;;;;5093021;28;20469;-66
2022/07/25 05:04:03;;;;;;;67.90;10.03;;;;;;;;;;5093449;28;20534;-66
2022/07/25 05:06:31;;;;;;;66.17;9.83;;;;;;;;;;5093253;28;20446;-66
2022/07/25 05:08:58;;;;;;;66.57;9.63;;;;;;;;;;5093374;28;20458;-66
2022/07/25 05:11:25;;;;;;;66.30;9.43;;;;;;;;;;5092970;28;20471;-66
2022/07/25 05:13:52;;;;;;;65.23;8.70;;;;;;;;;;5091261;28;20478;-66
2022/07/25 05:16:19;;;;;;;65.50;9.07;;;;;;;;;;5092557;28;20489;-66
2022/07/25 05:18:47;;;;;;;67.00;9.77;;;;;;;;;;5092823;28;20464;-66
2022/07/25 05:21:15;;;;;;;71.63;10.23;;;;;;;;;;5092364;28;20468;-66
2022/07/25 05:23:42;;;;;;;67.53;9.33;;;;;;;;;;5092322;28;20443;-66
2022/07/25 05:26:10;;;;;;;65.30;9.07;;;;;;;;;;5092985;28;20473;-66
2022/07/25 05:28:37;;;;;;;65.67;8.70;;;;;;;;;;5092351;28;20900;-66
2022/07/25 05:31:04;;;;;;;66.70;10.20;;;;;;;;;;5092728;28;21032;-66
2022/07/25 05:33:31;;;;;;;67.00;9.57;;;;;;;;;;5092587;28;20486;-66
2022/07/25 05:35:58;;;;;;;65.30;9.07;;;;;;;;;;5092760;28;20449;-66
2022/07/25 05:38:27;;;;;;;66.53;9.40;;;;;;;;;;5092392;28;20450;-66
2022/07/25 05:40:54;;;;;;;65.50;8.87;;;;;;;;;;5092647;28;20557;-66
2022/07/25 05:43:21;;;;;;;64.80;7.83;;;;;;;;;;5092542;28;20472;-66
2022/07/25 05:45:48;;;;;;;66.77;10.13;;;;;;;;;;5091576;28;20448;-66
2022/07/25 05:48:15;;;;;;;66.47;9.70;;;;;;;;;;5092855;28;20529;-66
2022/07/25 05:50:44;;;;;;;67.37;9.27;;;;;;;;;;5092690;28;20469;-66
2022/07/25 05:53:11;;;;;;;65.27;9.40;;;;;;;;;;5092519;28;20481;-66
2022/07/25 05:55:40;;;;;;;66.10;9.37;;;;;;;;;;5092437;28;20447;-66
2022/07/25 05:58:08;;;;;;;68.53;10.77;;;;;;;;;;5091791;28;20836;-66
2022/07/25 06:00:35;;;;;;;66.53;9.13;;;;;;;;;;5091818;28;20972;-66
2022/07/25 06:03:02;;;;;;;64.90;8.70;;;;;;;;;;5092326;28;20446;-66
2022/07/25 06:05:29;;;;;;;66.47;9.57;;;;;;;;;;5092182;28;20451;-67
2022/07/25 06:07:56;;;;;;;66.93;9.10;;;;;;;;;;5092634;28;20447;-66
2022/07/25 06:10:23;;;;;;;65.57;8.70;;;;;;;;;;5096228;28;20478;-66
2022/07/25 06:12:52;;;;;;;64.33;8.43;;;;;;;;;;5096411;28;20824;-66
2022/07/25 06:15:19;;;;;;;65.20;8.90;;;;;;;;;;5094647;28;20450;-66
2022/07/25 06:17:46;;;;;;;64.47;9.03;;;;;;;;;;5095691;28;20450;-66
2022/07/25 06:20:13;;;;;;;66.20;9.03;;;;;;;;;;5096398;28;20490;-66
2022/07/25 06:22:40;;;;;;;65.80;8.50;;;;;;;;;;5095742;28;20457;-66
2022/07/25 06:25:08;;;;;;;72.77;10.73;;;;;;;;;;5096327;28;20455;-66
2022/07/25 06:27:35;;;;;;;65.40;8.93;;;;;;;;;;5096223;28;20446;-66
2022/07/25 06:30:05;;;;;;;67.17;8.63;;;;;;;;;;5095383;28;20479;-67
2022/07/25 06:32:32;;;;;;;66.13;8.87;;;;;;;;;;5096905;28;20544;-66
2022/07/25 06:34:59;;;;;;;65.47;9.20;;;;;;;;;;5096122;28;21014;-67
2022/07/25 06:37:26;;;;;;;66.53;9.63;;;;;;;;;;5095690;28;20452;-67
2022/07/25 06:39:54;;;;;;;64.43;7.97;;;;;;;;;;5096275;28;20469;-66
2022/07/25 06:42:21;;;;;;;62.87;7.87;;;;;;;;;;5095636;28;20945;-67
2022/07/25 06:44:48;;;;;;;64.23;7.83;;;;;;;;;;5095569;28;20983;-67
2022/07/25 06:47:17;;;;;;;63.90;8.03;;;;;;;;;;5094858;28;20487;-67
2022/07/25 06:49:44;;;;;;;65.60;9.23;;;;;;;;;;5095702;28;20469;-67
2022/07/25 06:52:11;;;;;;;65.97;8.37;;;;;;;;;;5095762;28;20476;-67
2022/07/25 06:54:38;;;;;;;65.20;7.73;;;;;;;;;;5095711;28;20481;-67
2022/07/25 06:57:05;;;;;;;63.30;7.27;;;;;;;;;;5096280;28;20959;-67
2022/07/25 06:59:33;;;;;;;63.37;7.97;;;;;;;;;;5095630;28;20855;-67
2022/07/25 07:02:00;;;;;;;63.37;8.03;;;;;;;;;;5095886;28;20449;-66
2022/07/25 07:04:29;;;;;;;62.57;7.90;;;;;;;;;;5095376;28;21028;-66
2022/07/25 07:06:56;;;;;;;63.10;7.77;;;;;;;;;;5095527;28;20450;-66
2022/07/25 07:09:23;;;;;;;64.57;8.10;;;;;;;;;;5095508;28;20447;-66
2022/07/25 07:11:50;;;;;;;63.27;7.20;;;;;;;;;;5095761;28;20442;-66
2022/07/25 07:14:17;;;;;;;64.90;8.40;;;;;;;;;;5095736;28;20478;-66
2022/07/25 07:16:45;;;;;;;63.30;7.87;;;;;;;;;;5096293;28;20545;-66
2022/07/25 07:19:13;;;;;;;63.13;7.40;;;;;;;;;;5095158;28;20499;-67
2022/07/25 07:21:42;;;;;;;64.77;7.90;;;;;;;;;;5095435;28;20457;-67
2022/07/25 07:24:09;;;;;;;63.37;7.47;;;;;;;;;;5095046;28;20500;-66
2022/07/25 07:26:36;;;;;;;64.40;7.40;;;;;;;;;;5095685;28;20458;-67
2022/07/25 07:29:03;;;;;;;64.40;8.90;;;;;;;;;;5096105;28;20468;-67
2022/07/25 07:31:31;;;;;;;64.30;8.17;;;;;;;;;;5095790;28;21043;-67
2022/07/25 07:33:58;;;;;;;63.97;7.70;;;;;;;;;;5095570;28;20482;-67
2022/07/25 07:36:25;;;;;;;63.80;7.30;;;;;;;;;;5095916;28;20450;-67
2022/07/25 07:38:54;;;;;;;65.53;8.17;;;;;;;;;;5095252;28;20453;-66
2022/07/25 07:41:21;;;;;;;63.87;8.23;;;;;;;;;;5095156;28;20553;-67
2022/07/25 07:43:48;;;;;;;62.17;7.80;;;;;;;;;;5095922;28;20465;-67
2022/07/25 07:46:15;;;;;;;63.10;7.90;;;;;;;;;;5095520;28;20542;-67
2022/07/25 07:48:43;;;;;;;62.87;7.73;;;;;;;;;;5095737;28;20476;-67
2022/07/25 07:51:10;;;;;;;61.80;6.60;;;;;;;;;;5095730;28;20900;-67
2022/07/25 07:56:23;;;;;;;63.47;7.80;;;;;;;;;;5098781;28;20426;-65
2022/07/25 07:58:50;;;;;;;64.00;7.50;;;;;;;;;;5096634;28;21028;-65
2022/07/25 08:01:18;;;;;;;63.47;7.87;;;;;;;;;;5097620;28;20552;-65
2022/07/25 08:03:45;;;;;;;63.50;7.67;;;;;;;;;;5099429;28;20451;-65
2022/07/25 08:06:13;;;;;;;62.13;6.33;;;;;;;;;;5098670;28;20454;-65
2022/07/25 08:08:40;;;;;;;65.80;7.93;;;;;;;;;;5098487;28;20458;-65
2022/07/25 08:11:07;;;;;;;64.17;7.53;;;;;;;;;;5099361;28;20466;-65
2022/07/25 08:13:36;;;;;;;64.40;7.43;;;;;;;;;;5099577;28;20958;-65
2022/07/25 08:16:04;;;;;;;64.07;7.60;;;;;;;;;;5099295;28;20989;-65
2022/07/25 08:18:32;;;;;;;64.17;7.80;;;;;;;;;;5098949;28;20455;-64
2022/07/25 08:21:01;;;;;;;68.63;7.87;;;;;;;;;;5098350;28;20562;-65
2022/07/25 08:23:30;;;;;;;63.57;7.70;;;;;;;;;;5098780;28;20743;-65
2022/07/25 08:25:58;;;;;;;63.87;7.93;;;;;;;;;;5098475;28;20459;-65
2022/07/25 08:28:25;;;;;;;63.57;7.50;;;;;;;;;;5099820;28;20455;-65
2022/07/25 08:30:53;;;;;;;64.90;8.70;;;;;;;;;;5095533;28;20841;-65
2022/07/25 08:33:20;;;;;;;63.47;7.87;;;;;;;;;;5099014;28;20454;-65
2022/07/25 08:35:50;;;;;;;63.20;7.53;;;;;;;;;;5098221;28;20482;-65
2022/07/25 08:38:18;;;;;;;63.30;6.90;;;;;;;;;;5097990;28;20454;-65
2022/07/25 08:40:45;;;;;;;63.80;7.80;;;;;;;;;;5096449;28;20907;-65
2022/07/25 08:43:13;;;;;;;64.17;7.40;;;;;;;;;;5080225;28;20452;-64
2022/07/25 08:45:44;;;;;;;62.80;7.23;;;;;;;;;;5077194;28;20599;-65
2022/07/25 08:48:13;;;;;;;63.40;7.37;;;;;;;;;;5076688;28;20497;-65
2022/07/25 08:50:40;;;;;;;64.40;7.63;;;;;;;;;;5076785;28;20467;-65
2022/07/25 08:53:07;;;;;;;64.47;7.00;;;;;;;;;;5077854;28;20447;-65
2022/07/25 08:55:34;;;;;;;68.53;10.20;;;;;;;;;;5078025;28;20510;-65
2022/07/25 08:58:02;;;;;;;64.10;7.70;;;;;;;;;;5076166;28;20466;-65
2022/07/25 09:00:29;;;;;;;63.40;8.27;;;;;;;;;;5077590;28;21000;-65
2022/07/25 09:02:57;;;;;;;63.57;8.00;;;;;;;;;;5091894;28;20455;-65
2022/07/25 09:05:26;;;;;;;64.00;7.77;;;;;;;;;;5087531;28;20459;-65
2022/07/25 09:07:54;;;;;;;65.70;8.73;;;;;;;;;;5088226;28;20533;-65
2022/07/25 09:10:23;;;;;;;63.73;7.80;;;;;;;;;;5094147;28;20522;-65
2022/07/25 09:12:53;;;;;;;64.23;7.13;;;;;;;;;;5097841;28;20537;-65
2022/07/25 09:15:24;;;;;;;63.20;7.60;;;;;;;;;;5096197;28;20493;-65
2022/07/25 09:17:52;;;;;;;62.30;7.30;;;;;;;;;;5096643;28;20823;-65
2022/07/25 09:20:20;;;;;;;62.57;7.30;;;;;;;;;;5096700;28;20481;-65
2022/07/25 09:22:48;;;;;;;63.17;7.80;;;;;;;;;;5098251;28;20446;-65
2022/07/25 09:25:22;;;;;;;63.27;8.00;;;;;;;;;;5096259;28;20450;-65
2022/07/25 09:27:49;;;;;;;62.30;7.40;;;;;;;;;;5088676;28;20514;-65
2022/07/25 09:30:17;;;;;;;62.77;7.43;;;;;;;;;;5099105;28;20557;-66
2022/07/25 09:32:44;;;;;;;62.60;7.40;;;;;;;;;;5098068;28;20537;-65
2022/07/25 09:35:11;;;;;;;70.13;6.90;;;;;;;;;;5100078;28;21119;-65
2022/07/25 09:37:38;;;;;;;62.17;7.13;;;;;;;;;;5104063;28;21011;-65
2022/07/25 09:40:14;;;;;;;62.87;7.30;;;;;;;;;;5099768;28;20470;-65
2022/07/25 09:42:44;;;;;;;62.30;7.80;;;;;;;;;;5100195;28;20533;-65
2022/07/25 09:45:13;;;;;;;62.60;6.90;;;;;;;;;;5103005;28;20450;-65
2022/07/25 09:47:50;;;;;;;61.57;6.90;;;;;;;;;;5104344;28;20474;-65
2022/07/25 09:50:18;;;;;;;63.50;6.47;;;;;;;;;;5104368;28;20477;-65
2022/07/25 09:52:45;;;;;;;62.20;7.27;;;;;;;;;;5103472;28;21011;-65
2022/07/25 09:55:15;;;;;;;62.50;7.70;;;;;;;;;;5103916;28;20485;-66
2022/07/25 09:57:43;;;;;;;63.40;7.30;;;;;;;;;;5103816;28;20450;-65
2022/07/25 10:00:12;;;;;;;62.40;7.10;;;;;;;;;;5103153;28;20466;-66
2022/07/25 10:02:47;;;;;;;62.00;7.70;;;;;;;;;;5103460;28;20446;-65
2022/07/25 10:05:16;;;;;;;61.00;6.80;;;;;;;;;;5102976;28;20450;-65
2022/07/25 10:07:46;;;;;;;63.83;7.40;;;;;;;;;;5103202;28;20458;-65
2022/07/25 10:10:26;;;;;;;63.03;6.73;;;;;;;;;;5104260;28;20987;-65
2022/07/25 10:13:04;;;;;;;61.83;6.77;;;;;;;;;;5103530;28;20470;-66
2022/07/25 10:15:55;;;;;;;61.50;6.77;;;;;;;;;;5103748;28;20569;-66
2022/07/25 10:18:23;;;;;;;62.60;6.90;;;;;;;;;;5088340;28;20974;-66
2022/07/25 10:20:52;;;;;;;61.63;6.27;;;;;;;;;;5102650;28;20500;-66
2022/07/25 10:23:23;;;;;;;62.10;7.10;;;;;;;;;;5102604;28;20465;-66
2022/07/25 10:26:01;;;;;;;62.97;7.03;;;;;;;;;;5101990;28;20806;-66
2022/07/25 10:28:36;;;;;;;61.23;6.53;;;;;;;;;;5102559;28;20822;-63
2022/07/25 10:31:04;;;;;;;60.03;6.30;;;;;;;;;;5102858;28;20469;-64
2022/07/25 10:33:41;;;;;;;61.67;7.70;;;;;;;;;;5102241;28;20485;-64
2022/07/25 10:36:09;;;;;;;60.47;6.63;;;;;;;;;;5102026;28;20621;-65
2022/07/25 10:38:39;;;;;;;60.77;6.53;;;;;;;;;;5102638;28;20450;-64
2022/07/25 10:41:09;;;;;;;61.50;7.33;;;;;;;;;;5102836;28;20477;-65
2022/07/25 10:43:39;;;;;;;59.70;6.60;;;;;;;;;;5101515;28;20923;-65
2022/07/25 10:46:12;;;;;;;61.70;6.30;;;;;;;;;;5100359;28;20493;-65
2022/07/25 10:48:39;;;;;;;60.40;6.77;;;;;;;;;;5100581;28;20457;-65
2022/07/25 10:51:07;;;;;;;61.20;6.77;;;;;;;;;;5102570;28;20476;-64
2022/07/25 10:53:35;;;;;;;59.77;6.47;;;;;;;;;;5102648;28;20452;-65
2022/07/25 10:56:09;;;;;;;59.70;5.90;;;;;;;;;;5100689;28;20470;-64
2022/07/25 10:58:46;;;;;;;60.27;6.20;;;;;;;;;;5099734;28;20541;-64
2022/07/25 11:01:14;;;;;;;61.53;6.40;;;;;;;;;;5101034;28;20496;-65
2022/07/25 11:03:43;;;;;;;58.67;5.57;;;;;;;;;;5100399;28;20454;-65
2022/07/25 11:06:11;;;;;;;58.70;5.80;;;;;;;;;;5099467;28;20998;-64
2022/07/25 11:08:38;;;;;;;60.50;6.10;;;;;;;;;;5098560;28;20556;-64
2022/07/25 11:11:05;;;;;;;58.57;6.20;;;;;;;;;;5099887;28;20545;-64
2022/07/25 11:13:38;;;;;;;58.70;5.63;;;;;;;;;;5100570;28;20529;-65
2022/07/25 11:16:05;;;;;;;60.17;6.23;;;;;;;;;;5101054;28;20948;-65
2022/07/25 11:18:33;;;;;;;59.10;6.50;;;;;;;;;;5100244;28;20485;-65
2022/07/25 11:21:01;;;;;;;57.87;5.20;;;;;;;;;;5100795;28;20561;-65
2022/07/25 11:23:29;;;;;;;58.70;5.70;;;;;;;;;;5100879;28;20556;-65
2022/07/25 11:26:04;;;;;;;58.60;5.00;;;;;;;;;;5100299;28;20514;-64
2022/07/25 11:28:39;;;;;;;58.07;5.70;;;;;;;;;;5098988;28;20453;-65
2022/07/25 11:31:06;;;;;;;59.77;6.03;;;;;;;;;;5101452;28;21067;-65
2022/07/25 11:33:33;;;;;;;58.77;6.10;;;;;;;;;;5101345;28;20446;-65
2022/07/25 11:36:01;;;;;;;59.00;5.43;;;;;;;;;;5101733;28;20446;-65
2022/07/25 11:38:28;;;;;;;58.07;5.80;;;;;;;;;;5101012;28;20478;-65
2022/07/25 11:40:55;;;;;;;58.90;6.50;;;;;;;;;;5100536;28;20481;-66
2022/07/25 11:43:23;;;;;;;57.60;5.23;;;;;;;;;;5100385;28;20533;-65
2022/07/25 11:45:58;;;;;;;59.27;6.37;;;;;;;;;;5098636;28;20860;-65
2022/07/25 11:48:31;;;;;;;57.90;5.57;;;;;;;;;;5101043;28;20521;-65
2022/07/25 11:50:58;;;;;;;57.23;5.37;;;;;;;;;;5101170;28;20484;-65
2022/07/25 11:53:25;;;;;;;57.93;5.90;;;;;;;;;;5101841;28;20475;-65
2022/07/25 11:55:52;;;;;;;59.00;5.53;;;;;;;;;;5100235;28;20446;-65
2022/07/25 11:58:20;;;;;;;59.20;6.07;;;;;;;;;;5100805;28;20482;-65
2022/07/25 12:00:48;;;;;;;58.40;5.40;;;;;;;;;;5100600;28;21006;-65
2022/07/25 12:03:19;;;;;;;58.27;5.80;;;;;;;;;;5100457;28;20974;-65
2022/07/25 12:05:46;;;;;;;57.73;5.70;;;;;;;;;;5099716;28;20474;-65
2022/07/25 12:08:14;;;;;;;58.80;5.73;;;;;;;;;;5099352;28;20443;-65
2022/07/25 12:10:42;;;;;;;59.17;6.67;;;;;;;;;;5098777;28;20550;-65
2022/07/25 12:13:09;;;;;;;58.30;5.83;;;;;;;;;;5098355;28;20455;-64
2022/07/25 12:15:37;;;;;;;59.20;5.03;;;;;;;;;;5094320;28;20469;-66
2022/07/25 12:18:05;;;;;;;59.37;5.43;;;;;;;;;;5092264;28;20446;-68
2022/07/25 12:20:34;;;;;;;58.27;5.40;;;;;;;;;;5092802;28;20462;-68
2022/07/25 12:23:03;;;;;;;59.17;5.40;;;;;;;;;;5090729;28;20455;-68
2022/07/25 12:25:30;;;;;;;59.80;6.40;;;;;;;;;;5092972;28;20497;-68
2022/07/25 12:27:58;;;;;;;60.30;6.10;;;;;;;;;;5092820;28;20442;-68
2022/07/25 12:30:26;;;;;;;59.00;5.43;;;;;;;;;;5092539;28;20462;-69
2022/07/25 12:32:53;;;;;;;63.30;4.87;;;;;;;;;;5092759;28;20773;-68
2022/07/25 12:35:23;;;;;;;60.67;6.27;;;;;;;;;;5092353;28;20442;-68
2022/07/25 12:37:51;;;;;;;59.00;5.03;;;;;;;;;;5091189;28;20529;-68
2022/07/25 12:40:19;;;;;;;61.03;6.10;;;;;;;;;;5092114;28;20467;-69
2022/07/25 12:42:46;;;;;;;59.63;5.20;;;;;;;;;;5092181;28;20537;-69
2022/07/25 12:45:14;;;;;;;59.57;5.80;;;;;;;;;;5092300;28;20478;-69
2022/07/25 12:47:42;;;;;;;59.77;5.40;;;;;;;;;;5092261;28;20457;-69
2022/07/25 12:50:10;;;;;;;59.70;5.13;;;;;;;;;;5091835;28;20509;-69
2022/07/25 12:52:38;;;;;;;59.17;5.03;;;;;;;;;;5089820;28;20455;-69
2022/07/25 12:55:07;;;;;;;60.70;5.30;;;;;;;;;;5092269;28;20533;-69
2022/07/25 12:57:36;;;;;;;59.10;5.83;;;;;;;;;;5091239;28;20455;-68
2022/07/25 13:00:04;;;;;;;59.50;4.80;;;;;;;;;;5092024;28;20466;-68
2022/07/25 13:02:31;;;;;;;64.20;5.97;;;;;;;;;;5091947;28;20473;-68
2022/07/25 13:04:59;;;;;;;61.40;5.67;;;;;;;;;;5091680;28;20932;-69
2022/07/25 13:07:27;;;;;;;59.83;6.10;;;;;;;;;;5092008;28;20443;-68
2022/07/25 13:09:54;;;;;;;59.40;5.43;;;;;;;;;;5091507;28;20561;-68
2022/07/25 13:12:23;;;;;;;59.90;4.97;;;;;;;;;;5092013;28;20826;-68
2022/07/25 13:14:50;;;;;;;60.07;5.57;;;;;;;;;;5091906;28;20482;-68
2022/07/25 13:17:17;;;;;;;60.47;5.87;;;;;;;;;;5090537;28;20451;-68
2022/07/25 13:19:44;;;;;;;61.00;5.60;;;;;;;;;;5091267;28;20477;-69
2022/07/25 13:22:11;;;;;;;60.30;5.87;;;;;;;;;;5091791;28;20477;-70
2022/07/25 13:24:39;;;;;;;60.07;5.23;;;;;;;;;;5089365;28;20478;-68
2022/07/25 13:27:06;;;;;;;60.10;6.13;;;;;;;;;;5091815;28;20491;-68
2022/07/25 13:29:34;;;;;;;60.20;5.80;;;;;;;;;;5091388;28;20469;-68
2022/07/25 13:32:02;;;;;;;59.37;5.57;;;;;;;;;;5091508;28;20442;-68
2022/07/25 13:34:29;;;;;;;60.80;6.23;;;;;;;;;;5091641;28;20450;-68
2022/07/25 13:36:57;;;;;;;59.80;6.10;;;;;;;;;;5091076;28;20446;-68
2022/07/25 13:39:24;;;;;;;61.10;6.03;;;;;;;;;;5090628;28;20450;-68
2022/07/25 13:41:51;;;;;;;59.80;6.47;;;;;;;;;;5091815;28;20448;-68
2022/07/25 13:44:18;;;;;;;60.47;6.60;;;;;;;;;;5091433;28;20816;-68
2022/07/25 13:46:49;;;;;;;60.37;5.80;;;;;;;;;;5091460;28;20493;-68
2022/07/25 13:49:16;;;;;;;61.20;6.10;;;;;;;;;;5091173;28;20461;-68
2022/07/25 13:51:44;;;;;;;59.30;5.43;;;;;;;;;;5091833;28;20450;-68
2022/07/25 13:54:11;;;;;;;59.37;5.40;;;;;;;;;;5091499;28;20450;-68
2022/07/25 13:56:40;;;;;;;59.90;5.93;;;;;;;;;;5089393;28;20447;-68
2022/07/25 13:59:07;;;;;;;60.47;6.03;;;;;;;;;;5089726;28;20490;-68
2022/07/25 14:01:34;;;;;;;60.67;5.90;;;;;;;;;;5091337;28;20473;-68
2022/07/25 14:04:02;;;;;;;61.20;5.30;;;;;;;;;;5091265;28;20451;-68
2022/07/25 14:06:30;;;;;;;61.27;6.80;;;;;;;;;;5091394;28;20489;-68
2022/07/25 14:08:57;;;;;;;62.97;6.60;;;;;;;;;;5091055;28;20541;-68
2022/07/25 14:11:24;;;;;;;63.77;5.90;;;;;;;;;;5091186;28;20488;-70
2022/07/25 14:13:51;;;;;;;61.53;5.80;;;;;;;;;;5091252;28;20974;-70
2022/07/25 14:16:19;;;;;;;63.57;6.93;;;;;;;;;;5091363;28;20448;-69
2022/07/25 14:18:46;;;;;;;60.07;5.87;;;;;;;;;;5090122;28;20952;-70
2022/07/25 14:21:14;;;;;;;62.37;5.73;;;;;;;;;;5090823;28;20466;-69
2022/07/25 14:23:41;;;;;;;60.67;5.67;;;;;;;;;;5091065;28;20442;-69
2022/07/25 14:26:09;;;;;;;60.80;5.60;;;;;;;;;;5090858;28;20746;-70
2022/07/25 14:28:36;;;;;;;66.80;6.57;;;;;;;;;;5089071;28;20461;-67
2022/07/25 14:31:03;;;;;;;63.97;5.53;;;;;;;;;;5094679;28;20477;-68
2022/07/25 14:33:30;;;;;;;61.40;5.80;;;;;;;;;;5093292;28;20489;-67
2022/07/25 14:35:57;;;;;;;60.27;5.70;;;;;;;;;;5094927;28;20521;-68
2022/07/25 14:38:26;;;;;;;61.83;6.27;;;;;;;;;;5093718;28;20446;-68